Time;durP1;ratioP1;P1;durP2;ratioP2;P2;SDS_P1;SDS_P2;PMS_P1;PMS_P2;Temp;Humidity;BMP_temperature;BMP_pressure;BME280_temperature;BME280_humidity;BME280_pressure;Samples;Min_cycle;Max_cycle;Signal;HPM_P1;HPM_P2
2021/10/19 04:32:50;;;;;;;17.30;12.70;;;7.50;99.90;;;;;;5013173;23;20592;-75
2021/10/19 04:35:16;;;;;;;18.03;13.17;;;7.50;99.90;;;;;;4975401;28;20478;-75
2021/10/19 04:37:41;;;;;;;21.10;15.40;;;7.50;99.90;;;;;;4971861;28;20184;-73
2021/10/19 04:40:07;;;;;;;17.10;12.37;;;7.60;99.90;;;;;;4971290;28;20179;-75
2021/10/19 04:42:37;;;;;;;18.60;13.03;;;7.60;99.90;;;;;;4954469;28;20197;-74
2021/10/19 04:45:03;;;;;;;20.50;14.60;;;7.60;99.90;;;;;;4950927;29;20940;-74
2021/10/19 04:47:28;;;;;;;16.87;12.93;;;7.60;99.90;;;;;;4952661;28;20407;-75
2021/10/19 04:49:57;;;;;;;19.13;13.10;;;7.60;99.90;;;;;;4952092;29;20488;-74
2021/10/19 04:52:23;;;;;;;22.60;12.83;;;7.60;99.90;;;;;;4951867;28;20774;-75
2021/10/19 04:54:49;;;;;;;17.60;11.73;;;7.70;99.90;;;;;;4952524;29;20468;-75
2021/10/19 04:57:14;;;;;;;17.00;13.70;;;7.70;99.90;;;;;;4952246;28;20175;-76
2021/10/19 04:59:40;;;;;;;18.93;13.20;;;7.70;99.90;;;;;;4951379;29;20183;-75
2021/10/19 05:02:05;;;;;;;17.10;13.20;;;7.70;99.90;;;;;;4952046;28;20265;-76
2021/10/19 05:04:31;;;;;;;18.43;13.37;;;7.70;99.90;;;;;;4952580;28;20214;-76
2021/10/19 05:06:56;;;;;;;17.87;12.87;;;7.70;99.90;;;;;;4956400;29;20202;-76
2021/10/19 05:09:22;;;;;;;21.93;14.10;;;7.70;99.90;;;;;;4955742;29;20187;-75
2021/10/19 05:11:47;;;;;;;16.57;12.20;;;7.80;99.90;;;;;;4956377;28;20211;-77
2021/10/19 05:14:13;;;;;;;18.53;13.60;;;7.80;99.90;;;;;;4955755;29;20174;-76
2021/10/19 05:16:38;;;;;;;17.43;12.27;;;7.80;99.90;;;;;;4956389;29;20175;-73
2021/10/19 05:19:04;;;;;;;18.00;12.47;;;7.80;99.90;;;;;;4955979;29;20185;-76
2021/10/19 05:21:29;;;;;;;21.43;13.03;;;7.90;99.90;;;;;;4955358;28;20202;-77
2021/10/19 05:23:55;;;;;;;22.53;12.70;;;7.90;99.90;;;;;;4955825;29;20195;-76
2021/10/19 05:26:20;;;;;;;18.77;13.43;;;7.90;99.90;;;;;;4955835;29;20180;-76
2021/10/19 05:28:46;;;;;;;18.30;13.47;;;7.90;99.90;;;;;;4956174;29;20190;-75
2021/10/19 05:31:11;;;;;;;19.27;14.00;;;8.00;99.90;;;;;;4954526;28;20226;-76
2021/10/19 05:33:37;;;;;;;16.67;12.80;;;8.00;99.90;;;;;;4956138;29;20171;-76
2021/10/19 05:36:03;;;;;;;21.20;14.67;;;8.00;99.90;;;;;;4955699;29;20653;-76
2021/10/19 05:38:31;;;;;;;17.77;11.93;;;8.00;99.90;;;;;;4955792;29;20653;-76
2021/10/19 05:40:57;;;;;;;19.73;13.50;;;8.10;99.90;;;;;;4955303;28;20285;-76
2021/10/19 05:43:24;;;;;;;18.33;12.90;;;8.10;99.90;;;;;;4955143;29;20957;-76
2021/10/19 05:45:49;;;;;;;16.90;14.07;;;8.10;99.90;;;;;;4955942;29;20429;-75
2021/10/19 05:48:15;;;;;;;24.93;14.20;;;8.10;99.90;;;;;;4955844;29;20188;-78
2021/10/19 05:50:40;;;;;;;16.23;12.80;;;8.20;99.90;;;;;;4955497;28;20189;-78
2021/10/19 05:53:06;;;;;;;16.07;13.50;;;8.20;99.90;;;;;;4955891;29;20557;-77
2021/10/19 05:55:31;;;;;;;15.80;13.83;;;8.20;99.90;;;;;;4955885;29;20190;-77
2021/10/19 05:57:56;;;;;;;16.10;12.00;;;8.30;99.90;;;;;;4955478;29;20214;-78
2021/10/19 06:00:22;;;;;;;17.70;13.37;;;8.30;99.90;;;;;;4955201;29;20270;-77
2021/10/19 06:02:47;;;;;;;16.90;11.73;;;8.30;99.90;;;;;;4955646;28;20281;-78
2021/10/19 06:05:13;;;;;;;17.13;11.80;;;8.40;99.90;;;;;;4955641;29;20337;-78
2021/10/19 06:07:39;;;;;;;14.90;13.10;;;8.40;99.90;;;;;;4955748;29;20273;-77
2021/10/19 06:10:05;;;;;;;18.57;13.10;;;8.40;99.90;;;;;;4954991;29;20674;-78
2021/10/19 06:12:31;;;;;;;17.07;12.50;;;8.50;99.90;;;;;;4955596;28;20217;-79
2021/10/19 06:14:57;;;;;;;17.80;13.13;;;8.60;99.90;;;;;;4955788;28;20427;-77
2021/10/19 06:17:23;;;;;;;17.13;12.93;;;8.60;99.90;;;;;;4954524;28;20265;-77
2021/10/19 06:19:49;;;;;;;18.93;12.60;;;8.70;99.90;;;;;;4954960;28;20312;-78
2021/10/19 06:22:15;;;;;;;14.90;11.47;;;8.70;99.90;;;;;;4955195;28;20526;-78
2021/10/19 06:24:41;;;;;;;19.93;13.20;;;8.70;99.90;;;;;;4955472;28;20273;-77
2021/10/19 06:27:06;;;;;;;17.90;13.40;;;8.80;99.90;;;;;;4954861;29;20552;-78
2021/10/19 06:29:32;;;;;;;19.43;13.40;;;8.80;99.90;;;;;;4955105;29;20191;-78
2021/10/19 06:31:57;;;;;;;21.83;13.50;;;8.80;99.90;;;;;;4954924;28;20278;-78
2021/10/19 06:34:23;;;;;;;20.93;13.67;;;8.90;99.90;;;;;;4955278;29;20228;-78
2021/10/19 06:36:49;;;;;;;23.90;17.70;;;8.90;99.90;;;;;;4954897;29;20253;-78
2021/10/19 06:39:14;;;;;;;21.70;16.37;;;9.00;99.90;;;;;;4955471;28;20190;-77
2021/10/19 06:41:40;;;;;;;16.00;13.03;;;9.00;99.90;;;;;;4954934;28;20214;-77
2021/10/19 06:44:05;;;;;;;21.70;14.37;;;9.00;99.90;;;;;;4955374;29;20220;-78
2021/10/19 06:46:31;;;;;;;17.50;13.27;;;9.10;99.90;;;;;;4955270;29;20219;-78
2021/10/19 06:48:57;;;;;;;21.00;14.60;;;9.10;99.90;;;;;;4953308;29;20190;-78
2021/10/19 06:51:22;;;;;;;16.93;12.50;;;9.20;99.90;;;;;;4954432;28;20216;-77
2021/10/19 06:53:48;;;;;;;19.90;13.40;;;9.20;99.90;;;;;;4955036;29;20686;-78
2021/10/19 06:56:13;;;;;;;18.60;13.07;;;9.30;99.90;;;;;;4954830;29;20190;-77
2021/10/19 06:58:39;;;;;;;19.30;12.70;;;9.40;99.90;;;;;;4954392;29;20750;-76
2021/10/19 07:01:05;;;;;;;18.20;13.27;;;9.40;99.90;;;;;;4954404;28;20260;-77
2021/10/19 07:03:32;;;;;;;18.23;13.77;;;9.50;99.90;;;;;;4954820;28;20175;-77
2021/10/19 07:06:05;;;;;;;17.83;13.43;;;9.50;99.90;;;;;;4954819;28;20420;-77
2021/10/19 07:08:34;;;;;;;15.73;12.50;;;9.60;99.90;;;;;;4953589;29;20433;-77
2021/10/19 07:11:00;;;;;;;22.27;12.23;;;9.70;99.90;;;;;;4954049;28;20509;-77
2021/10/19 07:13:26;;;;;;;22.33;12.33;;;9.70;99.90;;;;;;4954168;28;20414;-77
2021/10/19 07:15:54;;;;;;;18.70;13.10;;;9.80;99.90;;;;;;4954686;29;20505;-77
2021/10/19 07:18:21;;;;;;;20.30;14.30;;;9.80;99.90;;;;;;4954359;28;20179;-77
2021/10/19 07:20:46;;;;;;;26.57;15.37;;;9.80;99.90;;;;;;4953969;28;20427;-78
2021/10/19 07:23:12;;;;;;;22.03;13.97;;;9.80;99.90;;;;;;4953954;28;20418;-77
2021/10/19 07:25:38;;;;;;;20.00;13.73;;;9.90;99.90;;;;;;4954384;29;20252;-78
2021/10/19 07:28:04;;;;;;;18.80;12.60;;;10.00;99.90;;;;;;4953529;28;20183;-77
2021/10/19 07:30:30;;;;;;;19.90;13.60;;;10.00;99.90;;;;;;4953574;28;20420;-77
2021/10/19 07:32:55;;;;;;;26.40;12.43;;;10.10;99.90;;;;;;4953938;29;20442;-78
2021/10/19 07:35:22;;;;;;;16.53;12.53;;;10.10;99.90;;;;;;4954147;28;20172;-77
2021/10/19 07:37:48;;;;;;;16.87;13.00;;;10.20;99.90;;;;;;4954198;28;20174;-78
2021/10/19 07:40:15;;;;;;;17.00;12.77;;;10.20;99.90;;;;;;4953582;28;20421;-77
2021/10/19 07:42:41;;;;;;;16.30;11.60;;;10.30;99.90;;;;;;4953525;28;20445;-78
2021/10/19 07:45:08;;;;;;;20.40;12.67;;;10.40;99.90;;;;;;4953966;28;20419;-77
2021/10/19 07:47:42;;;;;;;22.27;13.40;;;10.40;99.90;;;;;;4954140;28;20785;-77
2021/10/19 07:50:09;;;;;;;18.37;12.93;;;10.40;99.90;;;;;;4953391;28;20485;-78
2021/10/19 07:52:35;;;;;;;17.13;12.63;;;10.60;99.90;;;;;;4953749;28;20485;-78
2021/10/19 07:55:00;;;;;;;18.57;12.40;;;10.70;99.90;;;;;;4953880;29;20430;-77
2021/10/19 07:57:26;;;;;;;17.00;11.80;;;10.80;99.90;;;;;;4953260;29;20185;-78
2021/10/19 07:59:51;;;;;;;15.10;12.30;;;10.80;99.90;;;;;;4953303;29;20174;-78
2021/10/19 08:02:17;;;;;;;16.13;11.27;;;10.90;99.90;;;;;;4953338;28;20211;-78
2021/10/19 08:04:42;;;;;;;20.07;13.10;;;10.90;99.90;;;;;;4953750;29;20648;-79
2021/10/19 08:07:08;;;;;;;18.87;11.30;;;11.00;99.90;;;;;;4953429;29;20178;-77
2021/10/19 08:09:33;;;;;;;16.07;11.00;;;11.00;99.90;;;;;;4953610;29;20182;-75
2021/10/19 08:11:59;;;;;;;24.23;11.47;;;11.00;99.90;;;;;;4952743;28;20277;-77
2021/10/19 08:14:24;;;;;;;19.67;12.90;;;11.10;99.90;;;;;;4965771;28;20194;-77
2021/10/19 08:16:50;;;;;;;16.10;12.60;;;11.20;99.90;;;;;;4972991;28;20573;-77
2021/10/19 08:19:15;;;;;;;26.07;13.50;;;11.30;99.90;;;;;;4972831;28;20175;-77
2021/10/19 08:21:41;;;;;;;18.33;12.40;;;11.30;99.90;;;;;;4972401;28;20203;-78
2021/10/19 08:24:07;;;;;;;26.57;12.63;;;11.40;99.90;;;;;;4972548;28;20562;-78
2021/10/19 08:26:32;;;;;;;20.43;11.70;;;11.40;99.90;;;;;;4972914;28;20256;-77
2021/10/19 08:28:59;;;;;;;18.23;12.53;;;11.50;99.90;;;;;;4972778;28;20179;-79
2021/10/19 08:31:25;;;;;;;21.10;12.40;;;11.60;99.90;;;;;;4972214;28;20361;-78
2021/10/19 08:33:52;;;;;;;20.70;13.20;;;11.60;99.90;;;;;;4972578;28;20922;-77
2021/10/19 08:36:18;;;;;;;19.80;13.47;;;11.70;99.90;;;;;;4972450;28;20455;-77
2021/10/19 08:38:44;;;;;;;14.87;12.27;;;11.70;99.90;;;;;;4972633;28;20473;-78
2021/10/19 08:41:13;;;;;;;16.97;11.40;;;11.70;99.90;;;;;;4972191;28;20852;-77
2021/10/19 08:43:39;;;;;;;20.20;12.73;;;11.60;99.90;;;;;;4971961;28;20422;-75
2021/10/19 08:46:15;;;;;;;19.10;11.73;;;11.50;99.90;;;;;;4972492;28;20414;-78
2021/10/19 08:48:41;;;;;;;15.40;11.60;;;11.50;99.90;;;;;;4972274;28;20417;-76
2021/10/19 08:51:09;;;;;;;14.20;12.10;;;11.40;99.90;;;;;;4971506;28;20467;-77
2021/10/19 08:53:36;;;;;;;15.10;12.53;;;11.30;99.90;;;;;;4970692;28;21094;-77
2021/10/19 08:56:03;;;;;;;17.13;12.37;;;11.20;99.90;;;;;;4972386;28;20785;-78
2021/10/19 08:58:29;;;;;;;15.00;11.20;;;11.20;99.90;;;;;;4972076;28;20423;-77
2021/10/19 09:01:02;;;;;;;15.07;11.37;;;11.20;99.90;;;;;;4971590;28;20790;-77
2021/10/19 09:03:28;;;;;;;11.83;9.30;;;11.30;99.90;;;;;;4972194;28;20541;-79
2021/10/19 09:05:53;;;;;;;11.17;9.90;;;11.30;99.90;;;;;;4972206;28;20422;-78
2021/10/19 09:08:19;;;;;;;8.87;8.00;;;11.50;99.90;;;;;;4971907;28;20184;-76
2021/10/19 09:10:46;;;;;;;9.63;7.60;;;11.50;99.90;;;;;;4971127;28;20543;-77
2021/10/19 09:13:14;;;;;;;13.20;6.93;;;11.60;99.90;;;;;;4972036;28;20179;-78
2021/10/19 09:15:43;;;;;;;8.50;6.27;;;11.80;99.90;;;;;;4972060;28;20414;-76
2021/10/19 09:18:11;;;;;;;6.93;5.63;;;11.80;99.90;;;;;;4972640;28;20416;-77
2021/10/19 09:20:58;;;;;;;9.30;5.40;;;12.00;99.90;;;;;;4970165;28;20786;-77
2021/10/19 09:23:27;;;;;;;8.73;5.33;;;12.10;99.90;;;;;;4971795;28;20426;-78
2021/10/19 09:25:54;;;;;;;7.87;4.73;;;12.20;99.90;;;;;;4972475;28;20578;-78
2021/10/19 09:28:35;;;;;;;7.77;5.40;;;12.30;99.90;;;;;;4974436;28;20420;-77
2021/10/19 09:31:01;;;;;;;6.33;5.27;;;12.40;99.90;;;;;;4974681;28;20470;-78
2021/10/19 09:33:27;;;;;;;5.17;4.63;;;12.50;99.90;;;;;;4972299;28;20411;-78
2021/10/19 09:36:02;;;;;;;4.73;3.50;;;12.60;99.90;;;;;;4972138;28;20415;-79
2021/10/19 09:38:28;;;;;;;6.50;4.37;;;12.70;99.90;;;;;;4970784;28;20164;-78
2021/10/19 09:40:56;;;;;;;7.87;5.00;;;12.80;99.90;;;;;;4971019;28;20458;-78
2021/10/19 09:43:24;;;;;;;5.33;4.40;;;12.90;99.90;;;;;;4971719;28;20416;-78
2021/10/19 09:45:53;;;;;;;6.40;4.37;;;13.00;99.90;;;;;;4971972;28;20428;-79
2021/10/19 09:48:22;;;;;;;7.03;3.90;;;13.00;99.90;;;;;;4970457;28;20454;-75
2021/10/19 09:50:49;;;;;;;4.97;4.40;;;13.10;99.90;;;;;;4971321;28;21027;-78
2021/10/19 09:53:17;;;;;;;4.83;4.27;;;13.10;99.90;;;;;;4975414;28;20469;-78
2021/10/19 09:55:44;;;;;;;5.30;4.50;;;13.20;99.90;;;;;;4975467;28;20415;-79
2021/10/19 09:58:11;;;;;;;5.73;4.43;;;13.20;99.90;;;;;;4975182;28;20478;-78
2021/10/19 10:00:37;;;;;;;5.00;3.90;;;13.30;99.90;;;;;;4975026;28;20427;-78
2021/10/19 10:03:05;;;;;;;8.70;3.70;;;13.40;99.90;;;;;;4974745;28;20415;-78
2021/10/19 10:05:31;;;;;;;7.03;3.77;;;13.40;99.90;;;;;;4975252;28;20204;-78
2021/10/19 10:07:58;;;;;;;6.40;3.50;;;13.40;99.90;;;;;;4975059;28;20446;-78
2021/10/19 10:10:25;;;;;;;4.10;3.80;;;13.50;99.90;;;;;;4974393;28;20415;-78
2021/10/19 10:13:12;;;;;;;4.43;3.77;;;13.60;99.90;;;;;;4975058;28;20546;-78
2021/10/19 10:15:38;;;;;;;5.60;3.33;;;13.60;99.90;;;;;;4975380;28;20502;-78
2021/10/19 10:18:09;;;;;;;3.27;2.97;;;13.70;99.90;;;;;;4974931;28;20518;-78
2021/10/19 10:20:49;;;;;;;3.40;3.10;;;13.80;99.90;;;;;;4974757;28;20572;-78
2021/10/19 10:23:26;;;;;;;3.03;2.47;;;13.90;99.90;;;;;;4974743;28;20419;-78
2021/10/19 10:25:54;;;;;;;4.30;2.77;;;14.00;99.90;;;;;;4974594;28;20755;-78
2021/10/19 10:28:34;;;;;;;3.23;3.00;;;14.10;99.90;;;;;;4974681;28;20910;-76
2021/10/19 10:31:02;;;;;;;7.13;2.80;;;14.20;99.90;;;;;;4974126;28;20466;-78
2021/10/19 10:33:47;;;;;;;4.10;2.73;;;14.20;99.90;;;;;;4973841;28;20897;-78
2021/10/19 10:36:14;;;;;;;5.50;3.80;;;14.30;99.90;;;;;;4974474;28;20415;-79
2021/10/19 10:38:57;;;;;;;3.10;2.80;;;14.40;99.90;;;;;;4974698;28;20474;-78
2021/10/19 10:41:23;;;;;;;4.00;3.60;;;14.50;99.90;;;;;;4974105;28;20450;-78
2021/10/19 10:43:59;;;;;;;3.50;3.20;;;14.50;99.90;;;;;;4974348;28;20411;-78
2021/10/19 10:46:24;;;;;;;3.83;3.20;;;14.50;99.90;;;;;;4974781;28;20406;-78
2021/10/19 10:48:54;;;;;;;3.03;2.77;;;14.50;99.90;;;;;;4974559;28;20418;-78
2021/10/19 10:51:31;;;;;;;4.30;2.77;;;14.50;99.90;;;;;;4973768;28;20207;-77
2021/10/19 10:53:57;;;;;;;4.37;3.00;;;14.40;99.90;;;;;;4974465;28;20498;-78
2021/10/19 10:56:23;;;;;;;3.00;2.80;;;14.40;99.90;;;;;;4973903;28;20474;-77
2021/10/19 10:58:55;;;;;;;3.73;2.97;;;14.30;99.90;;;;;;4974491;28;20419;-78
2021/10/19 11:01:58;;;;;;;3.13;2.83;;;14.30;99.90;;;;;;4973434;28;20944;-78
2021/10/19 11:04:24;;;;;;;3.33;2.90;;;14.30;99.90;;;;;;4973424;28;21045;-78
2021/10/19 11:06:50;;;;;;;3.53;3.23;;;14.30;99.90;;;;;;4973801;28;20416;-78
2021/10/19 11:09:16;;;;;;;3.27;3.07;;;14.20;99.90;;;;;;4973660;28;20225;-78
2021/10/19 11:11:46;;;;;;;4.50;3.47;;;14.10;99.90;;;;;;4973639;28;20211;-77
2021/10/19 11:14:17;;;;;;;3.20;2.90;;;14.10;99.90;;;;;;4974037;28;20774;-78
2021/10/19 11:16:49;;;;;;;3.30;2.70;;;14.10;99.90;;;;;;4973837;28;20841;-78
2021/10/19 11:19:24;;;;;;;3.47;2.97;;;14.20;99.90;;;;;;4973915;28;20578;-78
2021/10/19 11:22:06;;;;;;;2.63;2.43;;;14.30;99.90;;;;;;4973599;28;20427;-78
2021/10/19 11:24:33;;;;;;;4.00;3.37;;;14.30;99.90;;;;;;4973841;28;20415;-78
2021/10/19 11:27:02;;;;;;;4.60;3.20;;;14.30;99.90;;;;;;4972217;28;20430;-76
2021/10/19 11:29:30;;;;;;;2.50;2.30;;;14.30;99.90;;;;;;4973860;28;20792;-78
2021/10/19 11:31:55;;;;;;;3.00;2.80;;;14.20;99.90;;;;;;4972998;28;20843;-78
2021/10/19 11:34:21;;;;;;;4.83;2.70;;;14.20;99.90;;;;;;4973168;28;20419;-78
2021/10/19 11:36:46;;;;;;;2.50;2.30;;;14.30;99.90;;;;;;4974170;28;20178;-78
2021/10/19 11:39:15;;;;;;;3.27;3.00;;;14.40;99.90;;;;;;4974340;28;20173;-78
2021/10/19 11:41:46;;;;;;;4.87;3.60;;;14.50;99.90;;;;;;4973359;28;20242;-78
2021/10/19 11:44:13;;;;;;;3.20;2.10;;;14.60;99.90;;;;;;4973631;28;20943;-78
2021/10/19 11:46:40;;;;;;;5.03;2.80;;;14.70;99.90;;;;;;4973215;28;20430;-76
2021/10/19 11:49:17;;;;;;;5.43;4.93;;;14.80;99.90;;;;;;4973706;28;20421;-78
2021/10/19 11:51:49;;;;;;;6.67;5.10;;;14.90;99.90;;;;;;4973478;28;20821;-78
2021/10/19 11:54:15;;;;;;;4.03;3.20;;;15.10;99.90;;;;;;4974136;28;20956;-77
2021/10/19 11:56:52;;;;;;;2.87;2.60;;;15.30;99.90;;;;;;4973810;28;20466;-77
2021/10/19 11:59:18;;;;;;;2.90;2.60;;;15.40;99.90;;;;;;4972880;28;20501;-75
2021/10/19 12:01:43;;;;;;;3.87;2.53;;;15.40;99.90;;;;;;4972731;28;20521;-78
2021/10/19 12:04:12;;;;;;;3.97;2.90;;;15.40;99.90;;;;;;4973193;28;20207;-77
2021/10/19 12:06:43;;;;;;;2.85;2.65;;;15.40;99.90;;;;;;4972325;28;20477;-77
2021/10/19 12:09:20;;;;;;;3.83;3.20;;;15.40;99.90;;;;;;4972847;28;20180;-77
2021/10/19 12:11:52;;;;;;;4.20;2.90;;;15.40;99.90;;;;;;4971987;28;20909;-77
2021/10/19 12:14:25;;;;;;;6.00;2.50;;;15.40;99.90;;;;;;4972680;28;20404;-77
2021/10/19 12:16:53;;;;;;;2.87;2.33;;;15.50;99.90;;;;;;4972864;28;20466;-75
2021/10/19 12:19:19;;;;;;;2.53;2.10;;;15.50;99.90;;;;;;4972515;28;20422;-77
2021/10/19 12:21:53;;;;;;;3.10;2.90;;;15.50;99.90;;;;;;4971781;28;20480;-78
2021/10/19 12:24:20;;;;;;;3.47;2.60;;;15.50;99.90;;;;;;4972667;28;20172;-76
2021/10/19 12:26:45;;;;;;;2.67;2.47;;;15.40;99.90;;;;;;4973234;28;20900;-78
2021/10/19 12:29:13;;;;;;;2.80;2.60;;;15.30;99.90;;;;;;4972419;28;20481;-77
2021/10/19 12:31:44;;;;;;;2.60;2.40;;;15.20;99.90;;;;;;4971950;28;20302;-78
2021/10/19 12:34:11;;;;;;;2.33;2.13;;;15.10;99.90;;;;;;4971579;28;20419;-77
2021/10/19 12:36:39;;;;;;;3.63;3.00;;;15.10;99.90;;;;;;4971642;28;20415;-76
2021/10/19 12:39:13;;;;;;;3.00;2.70;;;15.10;99.90;;;;;;4972037;28;20402;-78
2021/10/19 12:41:40;;;;;;;5.10;3.27;;;15.10;99.90;;;;;;4970897;28;20785;-79
2021/10/19 12:44:14;;;;;;;3.83;2.37;;;15.10;99.90;;;;;;4972505;28;20419;-78
2021/10/19 12:46:40;;;;;;;3.00;2.70;;;15.10;99.90;;;;;;4971349;28;20445;-77
2021/10/19 12:49:06;;;;;;;2.93;2.37;;;15.10;99.90;;;;;;4970463;28;20510;-78
2021/10/19 12:51:32;;;;;;;4.10;2.63;;;15.10;99.90;;;;;;4970615;28;20207;-78
2021/10/19 12:53:59;;;;;;;6.43;3.00;;;15.10;99.90;;;;;;4972239;28;20175;-76
2021/10/19 12:56:30;;;;;;;2.97;2.60;;;15.20;99.90;;;;;;4972365;28;20408;-77
2021/10/19 12:58:57;;;;;;;5.13;2.97;;;15.20;99.90;;;;;;4971899;28;20426;-76
2021/10/19 13:01:23;;;;;;;2.40;2.20;;;15.20;99.90;;;;;;4971502;28;20442;-76
2021/10/19 13:03:48;;;;;;;2.30;2.20;;;15.30;99.90;;;;;;4972219;28;20422;-76
2021/10/19 13:06:16;;;;;;;3.27;2.90;;;15.30;99.90;;;;;;4971816;28;20194;-76
2021/10/19 13:08:42;;;;;;;3.23;2.93;;;15.40;99.90;;;;;;4971907;28;21175;-76
2021/10/19 13:11:08;;;;;;;5.53;3.03;;;15.40;99.90;;;;;;4970883;28;20558;-76
2021/10/19 13:13:34;;;;;;;3.40;3.10;;;15.40;99.90;;;;;;4972153;28;20950;-76
2021/10/19 13:16:00;;;;;;;3.83;3.03;;;15.60;99.90;;;;;;4971828;28;20184;-76
2021/10/19 13:18:26;;;;;;;5.57;2.80;;;15.60;99.90;;;;;;4971788;28;20915;-75
2021/10/19 13:20:52;;;;;;;4.67;3.00;;;15.70;99.90;;;;;;4972166;28;20442;-76
2021/10/19 13:23:17;;;;;;;7.57;3.67;;;15.80;99.90;;;;;;4972081;28;20172;-76
2021/10/19 13:25:43;;;;;;;4.80;3.90;;;15.80;99.90;;;;;;4972139;28;20195;-77
2021/10/19 13:28:10;;;;;;;3.23;2.93;;;15.90;99.90;;;;;;4975337;28;20186;-76
2021/10/19 13:30:36;;;;;;;5.40;3.20;;;15.80;99.90;;;;;;4975018;28;20195;-75
2021/10/19 13:33:01;;;;;;;6.10;3.60;;;15.90;99.90;;;;;;4975223;28;20494;-75
2021/10/19 13:35:27;;;;;;;5.17;3.40;;;15.90;99.90;;;;;;4975668;28;20182;-76
2021/10/19 13:37:53;;;;;;;4.10;3.80;;;15.90;99.90;;;;;;4975174;28;20223;-76
2021/10/19 13:40:19;;;;;;;5.60;4.73;;;15.90;99.90;;;;;;4974855;28;20191;-75
2021/10/19 13:42:46;;;;;;;6.10;3.33;;;16.00;99.90;;;;;;4975165;28;20462;-76
2021/10/19 13:45:13;;;;;;;3.70;3.40;;;16.00;99.90;;;;;;4975152;28;20184;-76
2021/10/19 13:47:40;;;;;;;3.33;3.03;;;16.10;99.90;;;;;;4974980;28;20840;-75
2021/10/19 13:50:08;;;;;;;5.40;3.87;;;16.20;99.90;;;;;;4975591;28;20451;-75
2021/10/19 13:52:35;;;;;;;4.00;3.47;;;16.30;99.90;;;;;;4970542;28;20532;-74
2021/10/19 13:55:00;;;;;;;8.20;2.90;;;16.30;99.90;;;;;;4973075;28;20512;-76
2021/10/19 13:57:26;;;;;;;3.90;3.30;;;16.30;99.90;;;;;;4967991;28;20946;-76
2021/10/19 13:59:52;;;;;;;4.93;3.90;;;16.40;99.90;;;;;;4969425;28;20719;-76
2021/10/19 14:02:17;;;;;;;3.90;3.50;;;16.40;99.90;;;;;;4972361;28;20478;-75
2021/10/19 14:04:43;;;;;;;5.83;3.40;;;16.40;99.90;;;;;;4960830;28;20280;-75
2021/10/19 14:07:09;;;;;;;6.07;3.90;;;16.40;99.90;;;;;;4958369;28;20342;-76
2021/10/19 14:09:35;;;;;;;6.70;3.50;;;16.40;99.90;;;;;;4958569;28;20231;-76
2021/10/19 14:12:01;;;;;;;7.13;3.60;;;16.50;99.90;;;;;;4956855;28;20328;-74
2021/10/19 14:14:28;;;;;;;3.33;2.83;;;16.50;99.90;;;;;;4954582;28;20471;-75
2021/10/19 14:16:55;;;;;;;3.70;3.37;;;16.50;99.90;;;;;;4966158;28;20470;-76
2021/10/19 14:19:21;;;;;;;5.17;3.50;;;16.50;99.90;;;;;;4959751;28;20838;-74
2021/10/19 14:21:46;;;;;;;4.10;3.80;;;16.60;99.90;;;;;;4962141;28;20447;-76
2021/10/19 14:24:12;;;;;;;3.67;3.17;;;16.60;99.90;;;;;;4954822;28;20515;-76
2021/10/19 14:26:38;;;;;;;4.30;3.40;;;16.60;99.90;;;;;;4954860;29;20201;-75
2021/10/19 14:29:04;;;;;;;4.80;2.63;;;16.60;99.90;;;;;;4954002;28;20224;-75
2021/10/19 14:31:30;;;;;;;4.00;3.03;;;16.60;99.90;;;;;;4953676;29;20555;-75
2021/10/19 14:33:56;;;;;;;4.37;3.17;;;16.70;99.90;;;;;;4954357;28;20540;-75
2021/10/19 14:36:22;;;;;;;4.53;3.13;;;16.70;99.90;;;;;;4954402;28;20878;-74
2021/10/19 14:38:49;;;;;;;3.73;3.43;;;16.70;99.90;;;;;;4954285;28;20551;-75
2021/10/19 14:41:16;;;;;;;3.00;2.80;;;16.80;99.90;;;;;;4953642;28;20207;-75
2021/10/19 14:43:42;;;;;;;3.30;3.10;;;16.90;99.90;;;;;;4954286;28;20558;-75
2021/10/19 14:46:07;;;;;;;7.53;3.30;;;16.90;99.90;;;;;;4954308;28;20530;-75
2021/10/19 14:48:33;;;;;;;3.77;3.43;;;16.90;99.90;;;;;;4953913;28;20529;-76
2021/10/19 14:50:59;;;;;;;5.23;3.50;;;16.90;99.90;;;;;;4953735;29;20207;-76
2021/10/19 14:53:24;;;;;;;6.10;3.60;;;16.90;99.90;;;;;;4968703;28;20204;-76
2021/10/19 14:55:50;;;;;;;4.07;2.97;;;16.90;99.90;;;;;;4973779;28;20274;-76
2021/10/19 14:58:15;;;;;;;4.37;3.90;;;16.90;99.90;;;;;;4973812;28;20242;-77
2021/10/19 15:00:41;;;;;;;4.97;3.50;;;16.90;99.90;;;;;;4973461;28;20247;-74
2021/10/19 15:03:06;;;;;;;3.33;3.03;;;16.80;99.90;;;;;;4973797;28;20681;-75
2021/10/19 15:05:32;;;;;;;7.30;3.10;;;16.80;99.90;;;;;;4973563;28;20298;-76
2021/10/19 15:07:59;;;;;;;3.90;3.17;;;16.80;99.90;;;;;;4973117;28;20204;-75
2021/10/19 15:10:25;;;;;;;4.90;3.33;;;16.80;99.90;;;;;;4966211;28;20227;-75
2021/10/19 15:12:50;;;;;;;3.93;3.00;;;16.80;99.90;;;;;;4966286;28;20471;-76
2021/10/19 15:15:17;;;;;;;6.23;3.53;;;16.80;99.90;;;;;;4953908;28;20759;-76
2021/10/19 15:17:43;;;;;;;14.90;2.87;;;16.70;99.90;;;;;;4965577;28;20212;-75
2021/10/19 15:20:10;;;;;;;3.73;3.00;;;16.70;99.90;;;;;;4966057;28;20451;-75
2021/10/19 15:22:36;;;;;;;6.27;3.73;;;16.60;99.90;;;;;;4953884;28;20483;-75
2021/10/19 15:25:03;;;;;;;4.73;3.37;;;16.60;99.90;;;;;;4953694;28;20989;-75
2021/10/19 15:27:31;;;;;;;4.80;3.40;;;16.70;99.90;;;;;;4954245;28;20276;-75
2021/10/19 15:29:56;;;;;;;4.27;3.47;;;16.70;99.90;;;;;;4954154;28;20479;-76
2021/10/19 15:32:22;;;;;;;6.47;3.33;;;16.70;99.90;;;;;;4953213;29;20484;-75
2021/10/19 15:34:47;;;;;;;5.93;3.63;;;16.70;99.90;;;;;;4953683;28;20753;-75
2021/10/19 15:37:13;;;;;;;8.17;3.97;;;16.80;99.90;;;;;;4953125;29;20223;-75
2021/10/19 15:39:39;;;;;;;4.57;3.20;;;16.90;99.90;;;;;;4971229;28;20223;-76
2021/10/19 15:42:05;;;;;;;4.60;3.70;;;16.90;99.90;;;;;;4959571;28;20212;-75
2021/10/19 15:44:31;;;;;;;4.00;3.53;;;17.00;99.90;;;;;;4963026;28;20236;-76
2021/10/19 15:46:56;;;;;;;4.50;3.70;;;17.00;99.90;;;;;;4965390;28;20456;-76
2021/10/19 15:49:23;;;;;;;4.10;3.70;;;16.90;99.90;;;;;;4963943;28;20671;-74
2021/10/19 15:51:50;;;;;;;6.10;3.60;;;16.90;99.90;;;;;;4964501;28;20280;-76
2021/10/19 15:54:15;;;;;;;4.70;3.80;;;16.90;99.90;;;;;;4953140;28;20600;-75
2021/10/19 15:56:45;;;;;;;4.90;3.37;;;16.80;99.90;;;;;;4953776;29;20937;-73
2021/10/19 15:59:12;;;;;;;4.97;3.80;;;16.70;99.90;;;;;;4952699;28;20208;-76
2021/10/19 16:01:38;;;;;;;4.33;3.37;;;16.60;99.90;;;;;;4953121;28;20432;-76
2021/10/19 16:04:03;;;;;;;4.20;3.50;;;16.60;99.90;;;;;;4953084;28;20968;-75
2021/10/19 16:06:29;;;;;;;9.40;3.93;;;16.50;99.90;;;;;;4953505;29;20562;-75
2021/10/19 16:08:54;;;;;;;4.53;4.23;;;16.50;99.90;;;;;;4952793;28;20742;-76
2021/10/19 16:11:20;;;;;;;3.50;3.30;;;16.30;99.90;;;;;;4951950;29;20246;-76
2021/10/19 16:13:46;;;;;;;3.97;3.53;;;16.20;99.90;;;;;;4955212;28;20248;-76
2021/10/19 16:16:11;;;;;;;8.77;4.43;;;16.10;99.90;;;;;;4961900;28;20279;-76
2021/10/19 16:18:37;;;;;;;4.23;3.53;;;15.90;99.90;;;;;;4952301;28;20208;-75
2021/10/19 16:21:03;;;;;;;5.40;4.30;;;15.80;99.90;;;;;;4964944;28;20273;-75
2021/10/19 16:23:29;;;;;;;7.00;3.70;;;15.60;99.90;;;;;;4963231;28;20219;-75
2021/10/19 16:25:55;;;;;;;11.73;8.60;;;15.60;99.90;;;;;;4967380;28;20849;-76
2021/10/19 16:28:21;;;;;;;15.90;10.17;;;15.40;99.90;;;;;;4960213;28;20460;-73
2021/10/19 16:30:49;;;;;;;5.90;5.30;;;15.30;99.90;;;;;;4951907;28;20493;-76
2021/10/19 16:33:15;;;;;;;5.63;4.97;;;15.20;99.90;;;;;;4951782;28;20440;-72
2021/10/19 16:35:40;;;;;;;10.53;4.77;;;15.10;99.90;;;;;;4952507;28;20511;-73
2021/10/19 16:38:06;;;;;;;5.93;4.10;;;14.90;99.90;;;;;;4952339;28;20805;-74
2021/10/19 16:40:31;;;;;;;5.80;4.10;;;14.80;99.90;;;;;;4951875;28;20216;-73
2021/10/19 16:42:57;;;;;;;6.17;5.40;;;14.80;99.90;;;;;;4952474;29;20283;-73
2021/10/19 16:45:23;;;;;;;6.40;4.40;;;14.60;99.90;;;;;;4966316;28;20219;-76
2021/10/19 16:47:48;;;;;;;5.03;4.10;;;14.60;99.90;;;;;;4960887;28;20730;-76
2021/10/19 16:50:14;;;;;;;7.30;4.30;;;14.60;99.90;;;;;;4962307;28;20642;-78
2021/10/19 16:52:41;;;;;;;6.60;4.90;;;14.60;99.90;;;;;;4964566;28;20219;-76
2021/10/19 16:55:08;;;;;;;4.83;4.37;;;14.50;99.90;;;;;;4953464;28;20271;-76
2021/10/19 16:57:33;;;;;;;3.90;3.47;;;14.50;99.90;;;;;;4960615;28;20510;-76
2021/10/19 16:59:59;;;;;;;4.20;3.43;;;14.50;99.90;;;;;;4951173;28;20559;-77
2021/10/19 17:02:24;;;;;;;3.53;3.30;;;14.40;99.90;;;;;;4951983;29;20250;-77
2021/10/19 17:04:50;;;;;;;6.23;3.60;;;14.40;99.90;;;;;;4952070;28;20232;-76
2021/10/19 17:07:15;;;;;;;5.20;4.20;;;14.40;99.90;;;;;;4963665;28;20718;-76
2021/10/19 17:09:41;;;;;;;6.50;3.90;;;14.40;99.90;;;;;;4962613;28;20235;-73
2021/10/19 17:12:07;;;;;;;9.43;5.70;;;14.30;99.90;;;;;;4960184;28;20216;-75